createdAt,value
2022-10-18T00:02:13.708Z,8.10
2022-10-18T00:04:40.258Z,8.18
2022-10-18T00:07:06.867Z,8.20
2022-10-18T00:09:33.611Z,8.50
2022-10-18T00:12:00.778Z,7.65
2022-10-18T00:14:27.327Z,8.05
2022-10-18T00:16:53.959Z,7.68
2022-10-18T00:19:20.472Z,7.28
2022-10-18T00:21:50.656Z,7.63
2022-10-18T00:24:17.304Z,6.60
2022-10-18T00:26:43.826Z,6.78
2022-10-18T00:29:14.186Z,6.10
2022-10-18T00:31:42.662Z,6.90
2022-10-18T00:34:14.997Z,6.68
2022-10-18T00:36:42.887Z,6.65
2022-10-18T00:39:15.576Z,7.40
2022-10-18T00:41:42.226Z,7.18
2022-10-18T00:44:11.695Z,8.32
2022-10-18T00:46:43.551Z,7.22
2022-10-18T00:49:21.808Z,7.18
2022-10-18T00:51:51.587Z,6.88
2022-10-18T00:54:19.562Z,8.88
2022-10-18T00:56:46.496Z,8.40
2022-10-18T00:59:17.981Z,7.95
2022-10-18T01:01:45.379Z,7.93
2022-10-18T01:04:14.734Z,7.85
2022-10-18T01:09:32.279Z,7.10
2022-10-18T01:12:28.957Z,7.57
2022-10-18T01:15:15.382Z,6.63
2022-10-18T01:17:54.754Z,7.82
2022-10-18T01:20:55.249Z,7.55
2022-10-18T01:23:41.975Z,7.65
2022-10-18T01:26:50.515Z,8.43
2022-10-18T01:29:16.957Z,6.97
2022-10-18T01:31:50.414Z,7.85
2022-10-18T01:34:18.789Z,7.68
2022-10-18T01:36:51.964Z,8.73
2022-10-18T01:39:29.449Z,8.30
2022-10-18T01:41:58.451Z,7.30
2022-10-18T01:44:29.443Z,7.63
2022-10-18T01:46:58.192Z,8.10
2022-10-18T01:49:25.861Z,7.70
2022-10-18T01:51:53.255Z,7.13
2022-10-18T01:54:27.663Z,7.13
2022-10-18T01:57:03.574Z,7.78
2022-10-18T02:00:01.727Z,7.90
2022-10-18T02:02:28.348Z,7.65
2022-10-18T02:04:54.894Z,7.90
2022-10-18T02:07:21.314Z,7.40
2022-10-18T02:09:58.227Z,8.38
2022-10-18T02:12:26.065Z,8.45
2022-10-18T02:14:53.304Z,8.15
2022-10-18T02:17:21.737Z,8.30
2022-10-18T02:19:51.844Z,8.40
2022-10-18T02:22:19.511Z,7.90
2022-10-18T02:24:55.157Z,7.72
2022-10-18T02:27:22.460Z,7.57
2022-10-18T02:29:49.545Z,8.65
2022-10-18T02:32:34.067Z,8.30
2022-10-18T02:35:06.797Z,9.25
2022-10-18T02:37:38.056Z,9.00
2022-10-18T02:40:07.323Z,8.15
2022-10-18T02:42:39.090Z,9.25
2022-10-18T02:45:06.797Z,7.55
2022-10-18T02:47:33.508Z,8.15
2022-10-18T02:50:00.356Z,8.13
2022-10-18T02:52:26.824Z,8.10
2022-10-18T02:54:53.355Z,8.75
2022-10-18T02:57:19.881Z,8.10
2022-10-18T02:59:46.629Z,8.55
2022-10-18T03:02:13.134Z,8.23
2022-10-18T03:04:39.639Z,7.78
2022-10-18T03:07:06.163Z,7.25
2022-10-18T03:09:32.699Z,6.97
2022-10-18T03:11:59.665Z,7.30
2022-10-18T03:14:26.155Z,8.55
2022-10-18T03:16:52.717Z,7.20
2022-10-18T03:19:19.214Z,6.75
2022-10-18T03:21:45.754Z,7.10
2022-10-18T03:24:12.323Z,6.53
2022-10-18T03:26:38.826Z,6.30
2022-10-18T03:29:05.457Z,6.13
2022-10-18T03:31:32.379Z,7.05
2022-10-18T03:33:59.031Z,7.03
2022-10-18T03:36:27.633Z,6.88
2022-10-18T03:38:54.162Z,6.72
2022-10-18T03:41:20.924Z,7.00
2022-10-18T03:43:47.732Z,6.97
2022-10-18T03:46:14.300Z,6.82
2022-10-18T03:48:40.819Z,6.40
2022-10-18T03:51:07.531Z,6.53
2022-10-18T03:53:34.007Z,5.80
2022-10-18T03:56:00.489Z,6.55
2022-10-18T03:58:27.021Z,7.47
2022-10-18T04:00:55.256Z,6.85
2022-10-18T04:03:24.237Z,6.30
2022-10-18T04:05:51.074Z,6.57
2022-10-18T04:08:18.223Z,7.05
2022-10-18T04:10:45.499Z,6.60
2022-10-18T04:13:12.119Z,7.45
2022-10-18T04:15:38.722Z,6.50
2022-10-18T04:18:05.218Z,7.25
2022-10-18T04:20:31.697Z,7.10
2022-10-18T04:22:58.358Z,7.15
2022-10-18T04:25:25.282Z,6.88
2022-10-18T04:27:52.115Z,7.00
2022-10-18T04:30:18.612Z,6.63
2022-10-18T04:32:45.073Z,7.43
2022-10-18T04:35:11.614Z,8.13
2022-10-18T04:37:38.177Z,7.07
2022-10-18T04:40:05.313Z,7.47
2022-10-18T04:42:31.958Z,8.25
2022-10-18T04:44:58.438Z,8.52
2022-10-18T04:47:24.950Z,10.18
2022-10-18T04:49:51.422Z,8.65
2022-10-18T04:52:17.905Z,8.35
2022-10-18T04:54:44.384Z,8.13
2022-10-18T04:57:10.856Z,8.48
2022-10-18T04:59:37.476Z,8.55
2022-10-18T05:02:04.837Z,9.77
2022-10-18T05:04:31.510Z,9.93
2022-10-18T05:06:58.021Z,11.18
2022-10-18T05:09:24.887Z,12.43
2022-10-18T05:11:51.541Z,12.45
2022-10-18T05:14:18.192Z,13.05
2022-10-18T05:16:44.702Z,15.30
2022-10-18T05:19:11.180Z,14.00
2022-10-18T05:21:37.963Z,11.88
2022-10-18T05:24:04.708Z,14.63
2022-10-18T05:26:33.972Z,15.57
2022-10-18T05:29:00.617Z,13.98
2022-10-18T05:31:27.276Z,14.13
2022-10-18T05:33:53.748Z,13.85
2022-10-18T05:36:20.348Z,16.02
2022-10-18T05:38:48.276Z,15.02
2022-10-18T05:41:15.147Z,12.82
2022-10-18T05:43:41.650Z,14.20
2022-10-18T05:46:13.723Z,15.40
2022-10-18T05:48:43.417Z,14.13
2022-10-18T05:51:09.916Z,14.48
2022-10-18T05:53:37.442Z,14.57
2022-10-18T05:56:04.624Z,14.68
2022-10-18T05:58:31.176Z,14.95
2022-10-18T06:01:01.999Z,12.75
2022-10-18T06:03:30.520Z,12.63
2022-10-18T06:06:04.322Z,12.85
2022-10-18T06:08:30.947Z,14.80
2022-10-18T06:10:57.522Z,16.35
2022-10-18T06:13:24.308Z,13.57
2022-10-18T06:15:50.869Z,13.00
2022-10-18T06:18:17.453Z,14.50
2022-10-18T06:20:43.974Z,12.20
2022-10-18T06:23:10.504Z,14.75
2022-10-18T06:25:37.070Z,16.83
2022-10-18T06:28:09.041Z,12.60
2022-10-18T06:30:38.000Z,14.38
2022-10-18T06:33:04.454Z,16.23
2022-10-18T06:35:31.036Z,15.30
2022-10-18T06:37:57.794Z,15.52
2022-10-18T06:40:24.608Z,15.52
2022-10-18T06:43:00.126Z,13.52
2022-10-18T06:45:26.875Z,16.52
2022-10-18T06:47:53.325Z,14.85
2022-10-18T06:50:19.775Z,15.30
2022-10-18T06:52:48.555Z,18.60
2022-10-18T06:55:15.159Z,15.27
2022-10-18T06:57:41.616Z,16.85
2022-10-18T07:00:09.022Z,17.92
2022-10-18T07:02:35.649Z,15.10
2022-10-18T07:05:02.158Z,14.10
2022-10-18T07:07:31.864Z,15.20
2022-10-18T07:09:58.758Z,16.38
2022-10-18T07:12:25.389Z,14.00
2022-10-18T07:14:51.977Z,15.57
2022-10-18T07:17:18.487Z,13.75
2022-10-18T07:19:45.004Z,12.35
2022-10-18T07:22:11.565Z,11.63
2022-10-18T07:24:38.073Z,9.95
2022-10-18T07:27:04.987Z,10.95
2022-10-18T07:29:31.978Z,9.90
2022-10-18T07:31:58.451Z,9.35
2022-10-18T07:34:25.002Z,11.63
2022-10-18T07:36:52.180Z,10.05
2022-10-18T07:39:18.736Z,9.27
2022-10-18T07:41:45.246Z,9.13
2022-10-18T07:44:11.741Z,10.63
2022-10-18T07:46:38.344Z,9.40
2022-10-18T07:49:04.858Z,8.57
2022-10-18T07:51:32.823Z,9.57
2022-10-18T07:53:59.609Z,9.30
2022-10-18T07:56:26.095Z,8.57
2022-10-18T07:58:54.386Z,7.68
2022-10-18T08:01:22.902Z,10.32
2022-10-18T08:03:50.159Z,9.73
2022-10-18T08:06:18.618Z,9.65
2022-10-18T08:08:45.878Z,9.05
2022-10-18T08:11:21.027Z,11.48
2022-10-18T08:13:47.853Z,9.57
2022-10-18T08:16:23.819Z,10.32
2022-10-18T08:18:50.899Z,16.10
2022-10-18T08:21:19.138Z,15.00
2022-10-18T08:23:46.261Z,14.85
2022-10-18T08:26:15.783Z,16.17
2022-10-18T08:28:49.125Z,15.05
2022-10-18T08:31:20.894Z,13.07
2022-10-18T08:33:47.526Z,19.88
2022-10-18T08:36:16.120Z,20.40
2022-10-18T08:38:43.698Z,27.30
2022-10-18T08:41:35.216Z,21.15
2022-10-18T08:44:24.726Z,22.52
2022-10-18T08:46:55.404Z,23.15
2022-10-18T08:49:46.804Z,27.75
2022-10-18T08:52:18.411Z,22.70
2022-10-18T08:54:55.854Z,25.45
2022-10-18T08:57:22.439Z,27.65
2022-10-18T08:59:49.029Z,25.27
2022-10-18T09:02:31.843Z,24.55
2022-10-18T09:05:28.259Z,20.77
2022-10-18T09:07:54.749Z,20.25
2022-10-18T09:10:59.714Z,24.33
2022-10-18T09:13:37.884Z,24.08
2022-10-18T09:16:11.122Z,23.70
2022-10-18T09:18:57.670Z,23.10
2022-10-18T09:21:36.948Z,27.25
2022-10-18T09:24:19.882Z,25.83
2022-10-18T09:26:49.051Z,22.48
2022-10-18T09:29:33.126Z,24.15
2022-10-18T09:32:12.447Z,24.50
2022-10-18T09:34:51.185Z,28.45
2022-10-18T09:37:21.038Z,29.02
2022-10-18T09:39:50.908Z,32.45
2022-10-18T09:42:26.980Z,29.75
2022-10-18T09:45:00.920Z,30.17
2022-10-18T09:47:41.544Z,30.23
2022-10-18T09:50:19.907Z,32.50
2022-10-18T09:52:58.828Z,30.55
2022-10-18T09:55:32.550Z,29.30
2022-10-18T09:58:02.770Z,28.67
2022-10-18T10:00:35.188Z,28.15
2022-10-18T10:03:02.686Z,27.92
2022-10-18T10:05:29.569Z,27.33
2022-10-18T10:07:59.993Z,25.08
2022-10-18T10:10:29.867Z,21.63
2022-10-18T10:13:06.943Z,19.90
2022-10-18T10:15:38.169Z,18.50
2022-10-18T10:18:22.162Z,19.58
2022-10-18T10:20:52.799Z,17.42
2022-10-18T10:23:30.735Z,16.80
2022-10-18T10:26:01.813Z,15.27
2022-10-18T10:28:31.619Z,15.60
2022-10-18T10:31:17.724Z,13.32
2022-10-18T10:33:47.629Z,15.15
2022-10-18T10:36:20.468Z,13.30
2022-10-18T10:39:04.128Z,12.07
2022-10-18T10:44:02.613Z,11.73
2022-10-18T10:46:36.664Z,12.02
2022-10-18T10:49:35.066Z,11.07
2022-10-18T10:52:08.548Z,10.70
2022-10-18T10:54:39.278Z,11.57
2022-10-18T10:57:16.609Z,10.68
2022-10-18T10:59:46.557Z,10.57
2022-10-18T11:02:15.407Z,9.10
2022-10-18T11:04:42.987Z,10.27
2022-10-18T11:07:10.263Z,10.13
2022-10-18T11:09:49.509Z,8.90
2022-10-18T11:12:25.564Z,9.95
2022-10-18T11:15:10.226Z,9.20
2022-10-18T11:17:40.795Z,8.90
2022-10-18T11:20:09.808Z,8.93
2022-10-18T11:22:45.013Z,8.73
2022-10-18T11:25:15.585Z,7.88
2022-10-18T11:27:54.734Z,7.70
2022-10-18T11:30:38.714Z,6.80
2022-10-18T11:33:17.934Z,5.30
2022-10-18T11:35:47.899Z,3.97
2022-10-18T11:38:21.738Z,3.50
2022-10-18T11:41:00.580Z,3.53
2022-10-18T11:44:00.682Z,3.40
2022-10-18T11:46:54.640Z,3.38
2022-10-18T11:49:39.144Z,3.30
2022-10-18T11:52:29.802Z,3.30
2022-10-18T11:55:06.578Z,2.83
2022-10-18T11:58:00.003Z,3.35
2022-10-18T12:00:46.852Z,2.60
2022-10-18T12:03:20.198Z,2.88
2022-10-18T12:05:50.694Z,2.72
2022-10-18T12:08:30.699Z,2.70
2022-10-18T12:11:05.500Z,3.08
2022-10-18T12:13:48.827Z,2.70
2022-10-18T12:16:33.533Z,2.80
2022-10-18T12:19:15.089Z,2.65
2022-10-18T12:21:43.770Z,2.65
2022-10-18T12:24:18.649Z,3.17
2022-10-18T12:26:48.787Z,2.60
2022-10-18T12:29:33.397Z,2.70
2022-10-18T12:32:07.528Z,2.67
2022-10-18T12:34:46.709Z,2.88
2022-10-18T12:37:32.801Z,2.42
2022-10-18T12:40:14.251Z,2.13
2022-10-18T12:42:47.204Z,2.22
2022-10-18T12:45:20.745Z,2.00
2022-10-18T12:47:47.658Z,2.75
2022-10-18T12:50:31.367Z,2.38
2022-10-18T12:53:04.222Z,2.40
2022-10-18T12:55:36.916Z,2.53
2022-10-18T12:58:21.947Z,2.45
2022-10-18T13:00:49.318Z,2.38
2022-10-18T13:03:17.407Z,2.33
2022-10-18T13:05:55.256Z,2.10
2022-10-18T13:08:34.288Z,2.22
2022-10-18T13:11:10.596Z,2.47
2022-10-18T13:13:45.868Z,2.58
2022-10-18T13:16:23.213Z,2.20
2022-10-18T13:18:57.333Z,2.28
2022-10-18T13:21:34.907Z,2.50
2022-10-18T13:24:22.556Z,1.92
2022-10-18T13:27:18.097Z,2.22
2022-10-18T13:29:56.779Z,2.30
2022-10-18T13:32:37.619Z,1.98
2022-10-18T13:35:34.127Z,2.20
2022-10-18T13:38:01.665Z,2.30
2022-10-18T13:40:29.451Z,2.13
2022-10-18T13:42:56.340Z,2.10
2022-10-18T13:45:33.522Z,2.33
2022-10-18T13:48:19.472Z,1.90
2022-10-18T13:50:49.758Z,1.98
2022-10-18T13:53:25.160Z,2.17
2022-10-18T13:55:56.040Z,2.35
2022-10-18T13:58:33.636Z,2.28
2022-10-18T14:01:14.370Z,1.77
2022-10-18T14:04:00.508Z,2.47
2022-10-18T14:06:33.821Z,2.88
2022-10-18T14:09:25.649Z,2.40
2022-10-18T14:12:16.830Z,2.15
2022-10-18T14:14:46.004Z,2.63
2022-10-18T14:17:20.391Z,2.50
2022-10-18T14:19:56.877Z,2.70
2022-10-18T14:25:01.341Z,2.50
2022-10-18T14:27:33.093Z,2.78
2022-10-18T14:30:10.471Z,2.38
2022-10-18T14:32:37.566Z,2.47
2022-10-18T14:37:54.326Z,2.33
2022-10-18T14:40:30.837Z,2.00
2022-10-18T14:43:03.539Z,2.70
2022-10-18T14:45:30.479Z,2.30
2022-10-18T14:48:06.305Z,2.00
2022-10-18T14:50:33.851Z,2.55
2022-10-18T14:53:07.243Z,2.10
2022-10-18T14:55:35.636Z,2.30
2022-10-18T14:58:03.158Z,2.22
2022-10-18T15:00:36.267Z,2.38
2022-10-18T15:03:07.463Z,2.33
2022-10-18T15:05:34.448Z,2.17
2022-10-18T15:08:01.881Z,2.80
2022-10-18T15:10:32.669Z,2.13
2022-10-18T15:13:11.280Z,2.03
2022-10-18T15:15:39.499Z,2.78
2022-10-18T15:18:08.648Z,2.10
2022-10-18T15:20:42.825Z,2.85
2022-10-18T15:23:24.435Z,2.08
2022-10-18T15:25:53.995Z,2.22
2022-10-18T15:28:31.530Z,2.00
2022-10-18T15:30:59.087Z,2.50
2022-10-18T15:33:27.679Z,2.67
2022-10-18T15:35:55.245Z,2.58
2022-10-18T15:38:27.903Z,2.97
2022-10-18T15:40:56.597Z,2.38
2022-10-18T15:43:24.236Z,2.70
2022-10-18T15:45:55.584Z,2.67
2022-10-18T15:48:30.925Z,2.40
2022-10-18T15:51:05.327Z,2.35
2022-10-18T15:53:38.245Z,2.63
2022-10-18T15:56:07.112Z,2.45
2022-10-18T15:58:40.037Z,2.78
2022-10-18T16:01:16.412Z,2.50
2022-10-18T16:06:15.882Z,2.28
2022-10-18T16:08:48.971Z,2.65
2022-10-18T16:11:22.204Z,2.40
2022-10-18T16:13:49.746Z,2.20
2022-10-18T16:16:20.654Z,2.67
2022-10-18T16:18:48.126Z,2.40
2022-10-18T16:21:18.156Z,2.63
2022-10-18T16:23:45.940Z,2.00
2022-10-18T16:26:13.916Z,2.20
2022-10-18T16:28:41.784Z,2.10
2022-10-18T16:31:13.241Z,2.55
2022-10-18T16:33:40.550Z,2.50
2022-10-18T16:36:07.958Z,2.40
2022-10-18T16:38:37.301Z,2.22
2022-10-18T16:41:05.755Z,2.45
2022-10-18T16:43:34.972Z,2.30
2022-10-18T16:46:03.382Z,2.58
2022-10-18T16:48:33.479Z,2.80
2022-10-18T16:51:00.978Z,2.13
2022-10-18T16:53:29.020Z,2.25
2022-10-18T16:56:00.226Z,2.47
2022-10-18T16:58:29.633Z,2.72
2022-10-18T17:00:57.129Z,2.95
2022-10-18T17:03:24.860Z,2.40
2022-10-18T17:05:53.148Z,2.38
2022-10-18T17:08:23.885Z,2.95
2022-10-18T17:10:53.285Z,2.88
2022-10-18T17:13:22.035Z,2.35
2022-10-18T17:15:50.306Z,2.70
2022-10-18T17:18:22.179Z,3.13
2022-10-18T17:20:50.146Z,2.70
2022-10-18T17:23:17.357Z,2.42
2022-10-18T17:25:57.580Z,2.50
2022-10-18T17:28:32.310Z,2.70
2022-10-18T17:30:59.345Z,2.72
2022-10-18T17:33:26.310Z,2.30
2022-10-18T17:35:53.292Z,3.47
2022-10-18T17:38:20.723Z,2.80
2022-10-18T17:40:47.669Z,2.70
2022-10-18T17:43:14.787Z,3.20
2022-10-18T17:45:51.240Z,3.33
2022-10-18T17:50:45.669Z,3.17
2022-10-18T17:53:13.458Z,2.80
2022-10-18T17:55:40.976Z,2.78
2022-10-18T17:58:08.281Z,2.92
2022-10-18T18:00:35.359Z,2.65
2022-10-18T18:03:02.834Z,2.35
2022-10-18T18:05:33.206Z,2.38
2022-10-18T18:08:03.998Z,3.13
2022-10-18T18:10:33.820Z,2.92
2022-10-18T18:13:01.963Z,2.45
2022-10-18T18:15:29.140Z,2.83
2022-10-18T18:17:57.422Z,2.33
2022-10-18T18:20:27.221Z,2.40
2022-10-18T18:22:54.486Z,2.63
2022-10-18T18:25:21.558Z,2.40
2022-10-18T18:27:48.779Z,2.25
2022-10-18T18:30:18.199Z,2.72
2022-10-18T18:32:45.466Z,2.45
2022-10-18T18:35:12.879Z,2.35
2022-10-18T18:37:40.135Z,2.13
2022-10-18T18:40:08.287Z,2.13
2022-10-18T18:42:35.786Z,2.30
2022-10-18T18:45:03.173Z,2.35
2022-10-18T18:47:30.278Z,2.15
2022-10-18T18:49:57.309Z,1.85
2022-10-18T18:52:24.415Z,2.35
2022-10-18T18:54:51.993Z,2.00
2022-10-18T18:57:19.051Z,2.08
2022-10-18T18:59:46.758Z,2.08
2022-10-18T19:02:15.539Z,2.28
2022-10-18T19:04:42.755Z,2.22
2022-10-18T19:07:09.995Z,2.05
2022-10-18T19:09:39.072Z,2.17
2022-10-18T19:12:06.571Z,2.25
2022-10-18T19:14:34.021Z,2.78
2022-10-18T19:17:05.238Z,2.90
2022-10-18T19:19:33.129Z,3.42
2022-10-18T19:22:04.065Z,3.40
2022-10-18T19:24:33.391Z,3.40
2022-10-18T19:27:05.105Z,3.53
2022-10-18T19:29:36.037Z,3.42
2022-10-18T19:32:09.942Z,3.10
2022-10-18T19:34:37.314Z,2.88
2022-10-18T19:37:04.634Z,2.78
2022-10-18T19:39:34.702Z,2.80
2022-10-18T19:42:05.838Z,2.42
2022-10-18T19:44:36.420Z,2.80
2022-10-18T19:47:05.012Z,2.50
2022-10-18T19:49:32.632Z,2.90
2022-10-18T19:51:59.879Z,3.10
2022-10-18T19:54:27.212Z,3.35
2022-10-18T19:56:54.391Z,3.28
2022-10-18T19:59:23.182Z,2.92
2022-10-18T20:01:50.799Z,2.67
2022-10-18T20:04:18.426Z,2.90
2022-10-18T20:06:45.741Z,3.38
2022-10-18T20:09:16.250Z,2.95
2022-10-18T20:11:47.311Z,3.13
2022-10-18T20:14:14.522Z,3.22
2022-10-18T20:16:41.557Z,2.30
2022-10-18T20:19:09.877Z,3.38
2022-10-18T20:21:37.024Z,3.40
2022-10-18T20:24:06.335Z,3.08
2022-10-18T20:26:33.869Z,3.30
2022-10-18T20:29:01.000Z,3.25
2022-10-18T20:31:31.073Z,2.63
2022-10-18T20:34:01.025Z,3.58
2022-10-18T20:36:30.157Z,3.20
2022-10-18T20:38:57.582Z,2.97
2022-10-18T20:41:28.605Z,2.67
2022-10-18T20:44:00.171Z,3.25
2022-10-18T20:46:29.853Z,3.47
2022-10-18T20:48:56.959Z,3.08
2022-10-18T20:51:24.291Z,2.72
2022-10-18T20:53:52.257Z,2.50
2022-10-18T20:56:22.033Z,2.85
2022-10-18T20:58:51.145Z,2.83
2022-10-18T21:01:21.353Z,3.25
2022-10-18T21:03:50.777Z,2.55
2022-10-18T21:06:20.033Z,2.47
2022-10-18T21:08:48.439Z,3.13
2022-10-18T21:11:15.514Z,2.90
2022-10-18T21:13:42.489Z,3.10
2022-10-18T21:16:09.748Z,2.85
2022-10-18T21:18:37.919Z,2.70
2022-10-18T21:21:15.101Z,3.47
2022-10-18T21:23:42.148Z,3.15
2022-10-18T21:26:14.870Z,2.55
2022-10-18T21:28:41.971Z,2.88
2022-10-18T21:31:12.970Z,3.28
2022-10-18T21:33:41.718Z,3.10
2022-10-18T21:36:09.212Z,2.60
2022-10-18T21:38:36.391Z,2.70
2022-10-18T21:41:08.352Z,3.55
2022-10-18T21:43:35.219Z,2.80
2022-10-18T21:46:02.683Z,2.95
2022-10-18T21:48:29.630Z,3.92
2022-10-18T21:50:56.525Z,3.88
2022-10-18T21:53:23.429Z,3.70
2022-10-18T21:55:50.365Z,3.45
2022-10-18T21:58:17.271Z,3.28
2022-10-18T22:00:44.233Z,3.40
2022-10-18T22:03:13.187Z,2.92
2022-10-18T22:05:40.626Z,3.58
2022-10-18T22:08:08.130Z,3.20
2022-10-18T22:10:35.011Z,3.42
2022-10-18T22:13:01.910Z,3.80
2022-10-18T22:15:28.789Z,3.58
2022-10-18T22:17:55.680Z,3.67
2022-10-18T22:20:22.502Z,3.10
2022-10-18T22:22:54.209Z,3.13
2022-10-18T22:25:21.050Z,2.80
2022-10-18T22:27:47.881Z,3.13
2022-10-18T22:30:14.800Z,2.85
2022-10-18T22:32:41.668Z,3.03
2022-10-18T22:35:09.031Z,3.25
2022-10-18T22:37:36.194Z,3.22
2022-10-18T22:40:03.562Z,2.95
2022-10-18T22:42:30.440Z,2.65
2022-10-18T22:44:57.268Z,3.00
2022-10-18T22:47:25.416Z,3.45
2022-10-18T22:49:52.339Z,3.00
2022-10-18T22:52:19.141Z,2.97
2022-10-18T22:54:45.968Z,2.70
2022-10-18T22:57:12.780Z,2.58
2022-10-18T22:59:39.592Z,3.13
2022-10-18T23:02:06.464Z,2.58
2022-10-18T23:04:33.718Z,3.00
2022-10-18T23:07:00.608Z,3.03
2022-10-18T23:09:27.489Z,2.85
2022-10-18T23:11:54.350Z,3.08
2022-10-18T23:14:21.219Z,2.85
2022-10-18T23:16:48.112Z,2.70
2022-10-18T23:19:16.418Z,3.13
2022-10-18T23:21:43.519Z,3.10
2022-10-18T23:24:10.379Z,2.78
2022-10-18T23:26:37.288Z,3.28
2022-10-18T23:29:04.306Z,3.53
2022-10-18T23:31:33.422Z,3.05
2022-10-18T23:34:03.957Z,3.20
2022-10-18T23:36:32.815Z,2.67
2022-10-18T23:38:59.799Z,3.38
2022-10-18T23:41:26.923Z,3.30
2022-10-18T23:43:54.319Z,3.30
2022-10-18T23:46:21.919Z,3.30
2022-10-18T23:48:50.064Z,2.97
2022-10-18T23:51:17.647Z,3.28
2022-10-18T23:53:44.660Z,2.88
2022-10-18T23:56:14.353Z,3.83
2022-10-18T23:58:42.696Z,3.70
